Time,TemperatureF,DewpointF,PressureIn,WindDirection,WindDirectionDegrees,WindSpeedMPH,WindSpeedGustMPH,Humidity,HourlyPrecipIn,Conditions,Clouds,dailyrainin,SoftwareType,DateUTC
2013-05-22 00:00:00,69.2,69.2,29.96,SW,228,0.0,4.0,100,0.00,,,0.00,WeatherDisplay:10.37,2013-05-22 04:00:00,
2013-05-22 00:23:00,69.6,69.6,29.96,SSW,207,0.0,7.0,100,0.00,,,0.00,WeatherDisplay:10.37,2013-05-22 04:23:00,
2013-05-22 01:00:00,69.8,69.8,29.96,SW,223,1.0,8.0,100,0.00,,,0.00,WeatherDisplay:10.37,2013-05-22 05:00:00,
2013-05-22 02:00:00,71.0,71.0,29.95,SW,215,3.0,13.0,100,0.00,,,0.00,WeatherDisplay:10.37,2013-05-22 06:00:00,
2013-05-22 03:00:00,70.7,70.7,29.95,WSW,257,5.0,13.0,100,0.00,,,0.00,WeatherDisplay:10.37,2013-05-22 07:00:00,
2013-05-22 04:00:00,70.5,70.5,29.93,SSW,213,2.0,12.0,100,0.00,,,0.00,WeatherDisplay:10.37,2013-05-22 08:00:00,
2013-05-22 05:00:00,70.1,70.2,29.92,SSW,204,0.0,6.0,100,0.00,,,0.00,WeatherDisplay:10.37,2013-05-22 09:00:00,
2013-05-22 06:00:00,69.6,69.6,29.93,SSW,213,0.0,9.0,100,0.00,,,0.00,WeatherDisplay:10.37,2013-05-22 10:00:00,
2013-05-22 07:00:00,69.4,69.4,29.95,SW,232,1.0,7.0,100,0.00,,,0.00,WeatherDisplay:10.37,2013-05-22 11:00:00,
2013-05-22 08:00:00,70.3,70.3,29.97,WSW,247,2.0,9.0,100,0.00,,,0.00,WeatherDisplay:10.37,2013-05-22 12:00:00,
2013-05-22 09:00:00,72.2,72.2,29.98,SW,228,2.0,10.0,100,0.00,,,0.00,WeatherDisplay:10.37,2013-05-22 13:00:00,
2013-05-22 10:00:00,73.9,73.9,29.98,WSW,237,2.0,10.0,100,0.00,,,0.00,WeatherDisplay:10.37,2013-05-22 14:00:00,
2013-05-22 11:00:00,76.5,76.5,29.99,WSW,249,1.0,7.0,100,0.00,,,0.00,WeatherDisplay:10.37,2013-05-22 15:00:00,
2013-05-22 12:00:00,77.8,77.8,29.98,SW,232,3.0,9.0,100,0.00,,,0.00,WeatherDisplay:10.37,2013-05-22 16:00:00,
2013-05-22 13:00:00,80.3,80.3,29.96,SW,229,2.0,12.0,100,0.00,,,0.00,WeatherDisplay:10.37,2013-05-22 17:00:00,
2013-05-22 14:00:00,83.2,83.2,29.93,SW,218,1.0,12.0,100,0.00,,,0.00,WeatherDisplay:10.37,2013-05-22 18:00:00,
2013-05-22 15:00:00,84.1,84.1,29.91,SSW,207,3.0,12.0,100,0.00,,,0.00,WeatherDisplay:10.37,2013-05-22 19:00:00,
2013-05-22 16:00:00,83.7,83.7,29.90,SW,223,0.0,7.0,100,0.00,,,0.00,WeatherDisplay:10.37,2013-05-22 20:00:00,
2013-05-22 17:00:00,81.4,81.4,29.87,SW,220,0.0,15.0,100,0.00,,,0.00,WeatherDisplay:10.37,2013-05-22 21:00:00,
2013-05-22 18:00:00,82.8,82.8,29.86,SW,222,2.0,12.0,100,0.00,,,0.00,WeatherDisplay:10.37,2013-05-22 22:00:00,
2013-05-22 19:00:00,77.9,77.9,29.87,SSW,196,0.0,13.0,100,0.00,,,0.00,WeatherDisplay:10.37,2013-05-22 23:00:00,
2013-05-22 21:00:00,73.6,73.6,29.90,SSW,197,2.0,9.0,100,0.00,,,0.00,WeatherDisplay:10.37,2013-05-23 01:00:00,
2013-05-22 22:00:00,71.9,71.9,29.92,SSW,200,0.0,8.0,100,0.00,,,0.00,WeatherDisplay:10.37,2013-05-23 02:00:00,
2013-05-22 23:00:00,70.7,70.7,29.92,SW,229,0.0,4.0,100,0.00,,,0.00,WeatherDisplay:10.37,2013-05-23 03:00:00,